Terminal Aerodrome Forecast
Issued by NWS Greer, SC

Home | Current Version | Previous Version | Text Only | Print | Product List | Glossary On
Versions: 1 2 3 4 5 6 7 8 9 10 11 12 13 14 15 16 17 18 19 20 21 22 23 24 25
000
FTUS42 KGSP 261903 AAB
TAFGSP
TAF AMD
KGSP 261903Z 2619/2718 25004KT P6SM SCT025 BKN035
     FM262200 23006KT P6SM SCT040 BKN120
     FM270600 22007KT P6SM SCT030 BKN040
     FM271600 29010G17KT P6SM SCT040=

USA.gov is the U.S. government's official web portal to all federal, state and local government web resources and services.